WZZ1ZG LHBP-ESSA
Flight info
| Callsign | WZZ1ZG |
|---|---|
| Flight time | N/A |
| Altitude | 34000 |
| Route | LITKU Y301 KALIF DCT BABKO DCT PENOR DCT ARMOD/N0449F350 Z228 NILUG |
| Aircraft | A321/M-SDE3FGHIRWY/LB1 |
Departure
| Time | N/A |
|---|---|
| Airport | Budapest Liszt Ferenc International Airport (LHBP) |
Arrival
| Time | 2026-05-01 11:15 |
|---|---|
| Airport | Stockholm-Arlanda Airport (ESSA) |
| Time | Latitude | Longitude | Altitude | Speed | Heading |
|---|---|---|---|---|---|
| 2026-05-01 10:28 | 55.63952 | 17.16473 | 34373 ft | 422 kts | 356° |
| 2026-05-01 10:28 | 55.66873 | 17.16403 | 34376 ft | 420 kts | 4° |
| 2026-05-01 10:29 | 55.75630 | 17.17269 | 34372 ft | 420 kts | 4° |
| 2026-05-01 10:30 | 55.87285 | 17.18364 | 34364 ft | 419 kts | 4° |
| 2026-05-01 10:31 | 55.98911 | 17.19482 | 34337 ft | 419 kts | 3° |
| 2026-05-01 10:32 | 56.07656 | 17.20319 | 34342 ft | 420 kts | 3° |
| 2026-05-01 10:33 | 56.19320 | 17.21445 | 34323 ft | 421 kts | 3° |
| 2026-05-01 10:34 | 56.28080 | 17.22294 | 34319 ft | 420 kts | 3° |
| 2026-05-01 10:34 | 56.33921 | 17.22868 | 34328 ft | 420 kts | 3° |
| 2026-05-01 10:35 | 56.42679 | 17.23734 | 34318 ft | 420 kts | 3° |
| 2026-05-01 10:35 | 56.48521 | 17.24315 | 34326 ft | 419 kts | 3° |
| 2026-05-01 10:36 | 56.57267 | 17.25181 | 34311 ft | 419 kts | 3° |
| 2026-05-01 10:37 | 56.63090 | 17.25757 | 34311 ft | 419 kts | 3° |
| 2026-05-01 10:37 | 56.71783 | 17.26611 | 34311 ft | 419 kts | 3° |
| 2026-05-01 10:38 | 56.77603 | 17.27199 | 34301 ft | 418 kts | 2° |
| 2026-05-01 10:38 | 56.83424 | 17.27788 | 34308 ft | 418 kts | 2° |
| 2026-05-01 10:39 | 56.89245 | 17.28373 | 34308 ft | 418 kts | 2° |
| 2026-05-01 10:39 | 56.95056 | 17.28964 | 34303 ft | 418 kts | 2° |
| 2026-05-01 10:40 | 57.00875 | 17.29554 | 34311 ft | 418 kts | 2° |
| 2026-05-01 10:40 | 57.06682 | 17.30148 | 34294 ft | 418 kts | 2° |
| 2026-05-01 10:41 | 57.12481 | 17.30740 | 34299 ft | 418 kts | 2° |
| 2026-05-01 10:42 | 57.21184 | 17.31624 | 34287 ft | 418 kts | 2° |
| 2026-05-01 10:42 | 57.26990 | 17.32220 | 34290 ft | 418 kts | 2° |
| 2026-05-01 10:43 | 57.32790 | 17.32811 | 34293 ft | 417 kts | 2° |
| 2026-05-01 10:43 | 57.38552 | 17.33403 | 34296 ft | 417 kts | 2° |
| 2026-05-01 10:44 | 57.44354 | 17.34003 | 34282 ft | 417 kts | 2° |
| 2026-05-01 10:44 | 57.50154 | 17.34711 | 34286 ft | 418 kts | 7° |
| 2026-05-01 10:45 | 57.55868 | 17.36890 | 34284 ft | 419 kts | 10° |
| 2026-05-01 10:45 | 57.61581 | 17.39156 | 34275 ft | 419 kts | 10° |
| 2026-05-01 10:46 | 57.67281 | 17.41432 | 34273 ft | 419 kts | 10° |
| 2026-05-01 10:46 | 57.72989 | 17.43705 | 34277 ft | 419 kts | 10° |
| 2026-05-01 10:47 | 57.78692 | 17.45974 | 34273 ft | 419 kts | 10° |
| 2026-05-01 10:47 | 57.84406 | 17.48263 | 34271 ft | 420 kts | 10° |
| 2026-05-01 10:48 | 57.90110 | 17.50559 | 34087 ft | 423 kts | 10° |
| 2026-05-01 10:48 | 57.92990 | 17.51727 | 33809 ft | 423 kts | 10° |
| 2026-05-01 10:48 | 57.95872 | 17.52900 | 33530 ft | 424 kts | 10° |
| 2026-05-01 10:48 | 57.98755 | 17.54073 | 33262 ft | 425 kts | 10° |
| 2026-05-01 10:49 | 58.01644 | 17.55251 | 32705 ft | 426 kts | 10° |
| 2026-05-01 10:49 | 58.04559 | 17.56435 | 31902 ft | 429 kts | 10° |
| 2026-05-01 10:49 | 58.07487 | 17.57622 | 31131 ft | 432 kts | 10° |
| 2026-05-01 10:49 | 58.10438 | 17.58822 | 30290 ft | 436 kts | 10° |
| 2026-05-01 10:50 | 58.13406 | 17.60035 | 29621 ft | 434 kts | 10° |
| 2026-05-01 10:50 | 58.16335 | 17.61239 | 29116 ft | 427 kts | 10° |
| 2026-05-01 10:50 | 58.19222 | 17.62428 | 28576 ft | 422 kts | 10° |
| 2026-05-01 10:50 | 58.22074 | 17.63602 | 28043 ft | 417 kts | 10° |
| 2026-05-01 10:51 | 58.24901 | 17.64759 | 27511 ft | 412 kts | 9° |
| 2026-05-01 10:51 | 58.27690 | 17.65900 | 26984 ft | 408 kts | 9° |
| 2026-05-01 10:51 | 58.30451 | 17.67038 | 26464 ft | 404 kts | 9° |
| 2026-05-01 10:51 | 58.33182 | 17.68168 | 25949 ft | 400 kts | 9° |
| 2026-05-01 10:52 | 58.35888 | 17.69291 | 25438 ft | 396 kts | 9° |
| 2026-05-01 10:52 | 58.38568 | 17.70402 | 24951 ft | 393 kts | 9° |
| 2026-05-01 10:52 | 58.41231 | 17.71503 | 24442 ft | 390 kts | 9° |
| 2026-05-01 10:52 | 58.43874 | 17.72597 | 23950 ft | 387 kts | 9° |
| 2026-05-01 10:53 | 58.46504 | 17.73692 | 23411 ft | 385 kts | 9° |
| 2026-05-01 10:53 | 58.49106 | 17.74782 | 22942 ft | 381 kts | 9° |
| 2026-05-01 10:53 | 58.51682 | 17.75860 | 22487 ft | 377 kts | 8° |
| 2026-05-01 10:53 | 58.54242 | 17.76930 | 22031 ft | 374 kts | 8° |
| 2026-05-01 10:54 | 58.56771 | 17.77990 | 21594 ft | 370 kts | 8° |
| 2026-05-01 10:54 | 58.59276 | 17.79045 | 21161 ft | 366 kts | 8° |
| 2026-05-01 10:54 | 58.61747 | 17.80087 | 20738 ft | 362 kts | 8° |
| 2026-05-01 10:54 | 58.64196 | 17.81119 | 20321 ft | 359 kts | 8° |
| 2026-05-01 10:55 | 58.66623 | 17.82142 | 19920 ft | 355 kts | 7° |
| 2026-05-01 10:55 | 58.68992 | 17.83143 | 19508 ft | 351 kts | 7° |
| 2026-05-01 10:55 | 58.71399 | 17.84163 | 19093 ft | 348 kts | 7° |
| 2026-05-01 10:55 | 58.73727 | 17.85149 | 18677 ft | 346 kts | 7° |
| 2026-05-01 10:56 | 58.76069 | 17.86143 | 18227 ft | 344 kts | 7° |
| 2026-05-01 10:56 | 58.78398 | 17.87132 | 17786 ft | 341 kts | 7° |
| 2026-05-01 10:56 | 58.80705 | 17.88144 | 17364 ft | 341 kts | 10° |
| 2026-05-01 10:56 | 58.82999 | 17.89778 | 17070 ft | 364 kts | 20° |
| 2026-05-01 10:57 | 58.85294 | 17.91918 | 16710 ft | 367 kts | 21° |
| 2026-05-01 10:57 | 58.87593 | 17.94089 | 16410 ft | 367 kts | 21° |
| 2026-05-01 10:57 | 58.89879 | 17.96256 | 16109 ft | 365 kts | 21° |
| 2026-05-01 10:57 | 58.92155 | 17.98419 | 15817 ft | 364 kts | 21° |
| 2026-05-01 10:58 | 58.94431 | 18.00579 | 15500 ft | 363 kts | 21° |
| 2026-05-01 10:58 | 58.96696 | 18.02729 | 15206 ft | 362 kts | 20° |
| 2026-05-01 10:58 | 58.98952 | 18.04871 | 14910 ft | 360 kts | 21° |
| 2026-05-01 10:58 | 59.01199 | 18.07007 | 14613 ft | 359 kts | 21° |
| 2026-05-01 10:59 | 59.03438 | 18.09147 | 14316 ft | 358 kts | 21° |
| 2026-05-01 10:59 | 59.05664 | 18.11280 | 14026 ft | 356 kts | 21° |
| 2026-05-01 10:59 | 59.07885 | 18.13385 | 13701 ft | 354 kts | 19° |
| 2026-05-01 10:59 | 59.10186 | 18.14909 | 13410 ft | 347 kts | 8° |
| 2026-05-01 11:00 | 59.12554 | 18.15546 | 13128 ft | 341 kts | 358° |
| 2026-05-01 11:00 | 59.14916 | 18.15792 | 12850 ft | 340 kts | 358° |
| 2026-05-01 11:00 | 59.17275 | 18.16052 | 12568 ft | 339 kts | 359° |
| 2026-05-01 11:00 | 59.19627 | 18.16326 | 12307 ft | 338 kts | 359° |
| 2026-05-01 11:01 | 59.21977 | 18.16609 | 12010 ft | 338 kts | 359° |
| 2026-05-01 11:01 | 59.24324 | 18.16894 | 11731 ft | 338 kts | 359° |
| 2026-05-01 11:01 | 59.26669 | 18.17179 | 11453 ft | 337 kts | 359° |
| 2026-05-01 11:01 | 59.29005 | 18.17457 | 11172 ft | 336 kts | 359° |
| 2026-05-01 11:02 | 59.31339 | 18.17730 | 10898 ft | 335 kts | 359° |
| 2026-05-01 11:02 | 59.33624 | 18.18003 | 10720 ft | 322 kts | 359° |
| 2026-05-01 11:02 | 59.35819 | 18.18277 | 10599 ft | 310 kts | 359° |
| 2026-05-01 11:02 | 59.37223 | 18.18451 | 10516 ft | 302 kts | 359° |
| 2026-05-01 11:03 | 59.39281 | 18.18701 | 10395 ft | 290 kts | 359° |
| 2026-05-01 11:03 | 59.41273 | 18.18936 | 10171 ft | 283 kts | 358° |
| 2026-05-01 11:03 | 59.43230 | 18.19161 | 10122 ft | 282 kts | 358° |
| 2026-05-01 11:03 | 59.45824 | 18.19458 | 9857 ft | 281 kts | 358° |
| 2026-05-01 11:04 | 59.47141 | 18.19610 | 9705 ft | 281 kts | 358° |
| 2026-05-01 11:04 | 59.49092 | 18.19840 | 9498 ft | 280 kts | 358° |
| 2026-05-01 11:04 | 59.51009 | 18.20069 | 9149 ft | 281 kts | 358° |
| 2026-05-01 11:04 | 59.52972 | 18.20314 | 8732 ft | 282 kts | 1° |
| 2026-05-01 11:05 | 59.54908 | 18.20955 | 8516 ft | 278 kts | 6° |
| 2026-05-01 11:05 | 59.56807 | 18.21654 | 8302 ft | 278 kts | 5° |
| 2026-05-01 11:05 | 59.58701 | 18.22344 | 8053 ft | 276 kts | 5° |
| 2026-05-01 11:05 | 59.60590 | 18.23032 | 7793 ft | 274 kts | 6° |
| 2026-05-01 11:06 | 59.62461 | 18.23712 | 7556 ft | 273 kts | 6° |
| 2026-05-01 11:06 | 59.64326 | 18.24388 | 7308 ft | 272 kts | 6° |
| 2026-05-01 11:06 | 59.66184 | 18.25062 | 7063 ft | 271 kts | 6° |
| 2026-05-01 11:07 | 59.69876 | 18.26414 | 6574 ft | 268 kts | 6° |
| 2026-05-01 11:07 | 59.71706 | 18.27087 | 6326 ft | 267 kts | 6° |
| 2026-05-01 11:07 | 59.73529 | 18.27754 | 6075 ft | 266 kts | 6° |
| 2026-05-01 11:07 | 59.75350 | 18.28421 | 5838 ft | 266 kts | 6° |
| 2026-05-01 11:08 | 59.77164 | 18.29086 | 5620 ft | 264 kts | 6° |
| 2026-05-01 11:08 | 59.78978 | 18.29749 | 5362 ft | 265 kts | 6° |
| 2026-05-01 11:08 | 59.82561 | 18.29874 | 4880 ft | 255 kts | 336° |
| 2026-05-01 11:09 | 59.84058 | 18.28069 | 4630 ft | 251 kts | 314° |
| 2026-05-01 11:09 | 59.85066 | 18.25284 | 4401 ft | 250 kts | 292° |
| 2026-05-01 11:09 | 59.85445 | 18.21939 | 4132 ft | 250 kts | 270° |
| 2026-05-01 11:10 | 59.84290 | 18.15502 | 3605 ft | 252 kts | 241° |
| 2026-05-01 11:10 | 59.83394 | 18.12510 | 3336 ft | 251 kts | 240° |
| 2026-05-01 11:10 | 59.82515 | 18.09569 | 3183 ft | 243 kts | 240° |
| 2026-05-01 11:10 | 59.81673 | 18.06731 | 3046 ft | 234 kts | 240° |
| 2026-05-01 11:11 | 59.80857 | 18.03988 | 2920 ft | 226 kts | 238° |
| 2026-05-01 11:11 | 59.79774 | 18.01839 | 2789 ft | 218 kts | 216° |
| 2026-05-01 11:11 | 59.78374 | 18.00804 | 2693 ft | 213 kts | 194° |
| 2026-05-01 11:11 | 59.76970 | 18.00300 | 2494 ft | 198 kts | 194° |
| 2026-05-01 11:12 | 59.75642 | 17.99813 | 2248 ft | 191 kts | 195° |
| 2026-05-01 11:12 | 59.74349 | 17.99339 | 1987 ft | 185 kts | 194° |
| 2026-05-01 11:12 | 59.73130 | 17.98896 | 1747 ft | 170 kts | 194° |
| 2026-05-01 11:12 | 59.72014 | 17.98489 | 1556 ft | 156 kts | 194° |
| 2026-05-01 11:13 | 59.70986 | 17.98114 | 1331 ft | 147 kts | 194° |
| 2026-05-01 11:13 | 59.69988 | 17.97750 | 1137 ft | 145 kts | 193° |
| 2026-05-01 11:13 | 59.69002 | 17.97396 | 994 ft | 144 kts | 195° |
| 2026-05-01 11:13 | 59.68022 | 17.97033 | 784 ft | 143 kts | 194° |
| 2026-05-01 11:14 | 59.67052 | 17.96678 | 584 ft | 140 kts | 193° |
| 2026-05-01 11:14 | 59.66095 | 17.96330 | 417 ft | 140 kts | 193° |
| 2026-05-01 11:14 | 59.65140 | 17.95989 | 210 ft | 139 kts | 194° |
| 2026-05-01 11:14 | 59.64220 | 17.95648 | 111 ft | 121 kts | 191° |
| 2026-05-01 11:15 | 59.63559 | 17.95408 | 120 ft | 72 kts | 190° |
| 2026-05-01 11:15 | 59.63230 | 17.95290 | 128 ft | 32 kts | 190° |
| 2026-05-01 11:15 | 59.63038 | 17.95178 | 135 ft | 26 kts | 207° |
| 2026-05-01 11:15 | 59.62901 | 17.94983 | 136 ft | 23 kts | 220° |
| 2026-05-01 11:16 | 59.62844 | 17.94823 | 137 ft | 10 kts | 268° |
| 2026-05-01 11:16 | 59.62894 | 17.94765 | 137 ft | 9 kts | 356° |
| 2026-05-01 11:16 | 59.62969 | 17.94788 | 135 ft | 13 kts | 10° |
| 2026-05-01 11:16 | 59.63068 | 17.94824 | 131 ft | 16 kts | 11° |
| 2026-05-01 11:17 | 59.63190 | 17.94868 | 126 ft | 20 kts | 10° |
| 2026-05-01 11:17 | 59.63335 | 17.94920 | 119 ft | 23 kts | 11° |
| 2026-05-01 11:17 | 59.63501 | 17.94980 | 118 ft | 26 kts | 10° |
| 2026-05-01 11:17 | 59.63689 | 17.95049 | 112 ft | 29 kts | 10° |
| 2026-05-01 11:18 | 59.63890 | 17.95121 | 110 ft | 30 kts | 10° |
| 2026-05-01 11:18 | 59.64075 | 17.95190 | 108 ft | 27 kts | 10° |
| 2026-05-01 11:18 | 59.64245 | 17.95237 | 106 ft | 19 kts | 356° |
| 2026-05-01 11:18 | 59.64362 | 17.95111 | 104 ft | 20 kts | 311° |
| 2026-05-01 11:19 | 59.64403 | 17.94843 | 103 ft | 21 kts | 265° |
| 2026-05-01 11:19 | 59.64343 | 17.94580 | 103 ft | 22 kts | 237° |
| 2026-05-01 11:19 | 59.64261 | 17.94327 | 103 ft | 22 kts | 238° |
| 2026-05-01 11:19 | 59.64182 | 17.94077 | 106 ft | 21 kts | 237° |
| 2026-05-01 11:20 | 59.64110 | 17.93851 | 110 ft | 18 kts | 237° |
| 2026-05-01 11:20 | 59.64049 | 17.93666 | 112 ft | 15 kts | 238° |
| 2026-05-01 11:20 | 59.63995 | 17.93477 | 112 ft | 17 kts | 252° |
| 2026-05-01 11:20 | 59.64004 | 17.93245 | 111 ft | 18 kts | 291° |
| 2026-05-01 11:21 | 59.64059 | 17.93031 | 112 ft | 16 kts | 298° |
| 2026-05-01 11:21 | 59.64114 | 17.92822 | 111 ft | 18 kts | 298° |
| 2026-05-01 11:21 | 59.64174 | 17.92593 | 113 ft | 18 kts | 296° |
| 2026-05-01 11:21 | 59.64224 | 17.92401 | 113 ft | 13 kts | 298° |
| 2026-05-01 11:22 | 59.64263 | 17.92255 | 116 ft | 12 kts | 297° |
| 2026-05-01 11:22 | 59.64306 | 17.92103 | 113 ft | 12 kts | 314° |
| 2026-05-01 11:22 | 59.64384 | 17.92089 | 114 ft | 11 kts | 9° |
| 2026-05-01 11:22 | 59.64469 | 17.92120 | 113 ft | 14 kts | 10° |
| 2026-05-01 11:23 | 59.64569 | 17.92154 | 112 ft | 15 kts | 10° |
| 2026-05-01 11:23 | 59.64662 | 17.92188 | 112 ft | 13 kts | 10° |
| 2026-05-01 11:23 | 59.64721 | 17.92270 | 112 ft | 10 kts | 77° |
| 2026-05-01 11:23 | 59.64721 | 17.92382 | 112 ft | 7 kts | 68° |
| 2026-05-01 11:24 | 59.64746 | 17.92436 | 112 ft | 4 kts | 43° |
| 2026-05-01 11:24 | 59.64754 | 17.92450 | 112 ft | 0 kts | 43° |